Portada
METAR-TAF:

METAR-TAF

Aeropuertos :

Cerklje ob Krki, Eslovenia

latitud: 45-53-59N, longitud: 15-30-55E, altitud: 157 m

Observación

El informe se hizo hace 34 minutos, a las 20:00 UTC
Viento 4 kt del suroeste
Temperatura 10°C
Humedad 66%
Presión 1012 hPa
Visibilidad 10 km o más
Cielo nuboso a una altura de 4700 ft

METAR: LJCE 212000Z 22004KT 9999 BKN047 10/04 Q1012 RMK BLU

Hora: 21:34 (20:34 UTC)

Pronóstico

El informe se hizo hace 3 horas y 34 minutos, a las 17:00 UTC
Pronóstico válido del 21 a las 18 UTC al 22 a las 03 UTC
Viento 10 kt del suroeste
Visibilidad 10 km o más
Nubes dispersas a una altura de 4500 ft
Evolucionando progresivamente
del 21 a las 20 UTC al 21 a las 22 UTC
Viento 5 kt del oeste-suroeste
Probabilidad 30% :
Temporalmente
del 22 a las 00 UTC al 22 a las 03 UTC
lluvia ligera

TAF: LJCE 211700Z 2118/2203 22010KT 9999 SCT045 BECMG 2120/2122 24005KT PROB30 TEMPO 2200/2203 -RA

Observaciones y pronósticos meteorológicos de más de 4000 aeropuertos (mensajes METAR y TAF).

Los puntos amarillos y rojos representan las estaciones disponibles.

Ponga el ratón en el punto deseado para ver el nombre de la estación.

Haga clic para ver las observaciones y los pronósticos meteorológicos.

Para cambiar el mapa : haga clic en los botones verdes con una cruz de color negro para hacer un zoom, en el botón verde con un guión para alejar o en las flechas verdes para mapas adyacentes.


METAR-TAF: